SWA657 KLAS-KTUL
Flight info
| Callsign | SWA657 |
|---|---|
| Flight time | 2h 18m |
| Altitude | 37000 |
| Route | NIITZ4 HOCEE COCAN CIM PER |
| Aircraft | B38M/M-SADE2E3GHIJ4J7P2RWZ/LB1D1 |
Departure
| Time | 2026-05-08 02:30 |
|---|---|
| Airport | Harry Reid International Airport (KLAS) |
Arrival
| Time | 2026-05-08 04:48 |
|---|---|
| Airport | Tulsa International Airport (KTUL) |
| Time | Latitude | Longitude | Altitude | Speed | Heading |
|---|---|---|---|---|---|
| 2026-05-08 02:05 | 36.08189 | -115.14653 | 2119 ft | 0 kts | 251° |
| 2026-05-08 02:17 | 36.08190 | -115.14651 | 2118 ft | 3 kts | 250° |
| 2026-05-08 02:18 | 36.08197 | -115.14627 | 2119 ft | 3 kts | 249° |
| 2026-05-08 02:18 | 36.08211 | -115.14612 | 2121 ft | 3 kts | 171° |
| 2026-05-08 02:18 | 36.08227 | -115.14625 | 2118 ft | 0 kts | 118° |
| 2026-05-08 02:18 | 36.08219 | -115.14606 | 2117 ft | 3 kts | 118° |
| 2026-05-08 02:19 | 36.08210 | -115.14585 | 2117 ft | 3 kts | 118° |
| 2026-05-08 02:19 | 36.08209 | -115.14583 | 2117 ft | 0 kts | 118° |
| 2026-05-08 02:23 | 36.08206 | -115.14576 | 2117 ft | 2 kts | 122° |
| 2026-05-08 02:23 | 36.08188 | -115.14552 | 2117 ft | 6 kts | 135° |
| 2026-05-08 02:23 | 36.08180 | -115.14541 | 2117 ft | 0 kts | 131° |
| 2026-05-08 02:24 | 36.08154 | -115.14521 | 2117 ft | 7 kts | 158° |
| 2026-05-08 02:24 | 36.08080 | -115.14488 | 2114 ft | 15 kts | 167° |
| 2026-05-08 02:24 | 36.07960 | -115.14481 | 2112 ft | 19 kts | 180° |
| 2026-05-08 02:25 | 36.07912 | -115.14482 | 2110 ft | 0 kts | 181° |
| 2026-05-08 02:25 | 36.07901 | -115.14482 | 2110 ft | 4 kts | 181° |
| 2026-05-08 02:25 | 36.07826 | -115.14463 | 2108 ft | 19 kts | 165° |
| 2026-05-08 02:25 | 36.07754 | -115.14296 | 2103 ft | 31 kts | 91° |
| 2026-05-08 02:26 | 36.07753 | -115.13997 | 2097 ft | 37 kts | 90° |
| 2026-05-08 02:26 | 36.07753 | -115.13674 | 2090 ft | 39 kts | 90° |
| 2026-05-08 02:26 | 36.07753 | -115.13358 | 2082 ft | 25 kts | 89° |
| 2026-05-08 02:26 | 36.07755 | -115.13118 | 2071 ft | 30 kts | 90° |
| 2026-05-08 02:27 | 36.07753 | -115.12887 | 2064 ft | 26 kts | 90° |
| 2026-05-08 02:27 | 36.07754 | -115.12642 | 2053 ft | 29 kts | 90° |
| 2026-05-08 02:27 | 36.07754 | -115.12421 | 2049 ft | 23 kts | 90° |
| 2026-05-08 02:27 | 36.07753 | -115.12215 | 2043 ft | 18 kts | 90° |
| 2026-05-08 02:28 | 36.07680 | -115.12111 | 2043 ft | 18 kts | 181° |
| 2026-05-08 02:28 | 36.07638 | -115.12203 | 2046 ft | 13 kts | 280° |
| 2026-05-08 02:28 | 36.07639 | -115.12320 | 2049 ft | 16 kts | 269° |
| 2026-05-08 02:28 | 36.07638 | -115.12702 | 2059 ft | 74 kts | 270° |
| 2026-05-08 02:29 | 36.07639 | -115.13572 | 2087 ft | 126 kts | 270° |
| 2026-05-08 02:29 | 36.07631 | -115.14841 | 2124 ft | 166 kts | 268° |
| 2026-05-08 02:29 | 36.07655 | -115.16393 | 2275 ft | 193 kts | 271° |
| 2026-05-08 02:29 | 36.07663 | -115.18121 | 2681 ft | 207 kts | 270° |
| 2026-05-08 02:30 | 36.07658 | -115.19867 | 3457 ft | 196 kts | 269° |
| 2026-05-08 02:30 | 36.07526 | -115.21514 | 4077 ft | 199 kts | 260° |
| 2026-05-08 02:30 | 36.07282 | -115.23336 | 4244 ft | 230 kts | 261° |
| 2026-05-08 02:30 | 36.06765 | -115.25271 | 4645 ft | 248 kts | 236° |
| 2026-05-08 02:31 | 36.05419 | -115.26634 | 5226 ft | 258 kts | 204° |
| 2026-05-08 02:31 | 36.03697 | -115.27358 | 5927 ft | 264 kts | 202° |
| 2026-05-08 02:31 | 36.01961 | -115.28148 | 6662 ft | 266 kts | 201° |
| 2026-05-08 02:31 | 36.00133 | -115.28571 | 7363 ft | 272 kts | 178° |
| 2026-05-08 02:32 | 35.98276 | -115.28001 | 7856 ft | 282 kts | 153° |
| 2026-05-08 02:32 | 35.96727 | -115.26546 | 8636 ft | 281 kts | 140° |
| 2026-05-08 02:32 | 35.95235 | -115.24946 | 9128 ft | 296 kts | 140° |
| 2026-05-08 02:32 | 35.93659 | -115.23244 | 9737 ft | 303 kts | 139° |
| 2026-05-08 02:33 | 35.92064 | -115.21506 | 10403 ft | 310 kts | 137° |
| 2026-05-08 02:33 | 35.90709 | -115.19350 | 10728 ft | 328 kts | 119° |
| 2026-05-08 02:33 | 35.89515 | -115.16855 | 10988 ft | 348 kts | 120° |
| 2026-05-08 02:33 | 35.88243 | -115.14236 | 11355 ft | 363 kts | 120° |
| 2026-05-08 02:34 | 35.87151 | -115.11415 | 11946 ft | 365 kts | 103° |
| 2026-05-08 02:34 | 35.86860 | -115.08334 | 12738 ft | 363 kts | 86° |
| 2026-05-08 02:34 | 35.86972 | -115.05206 | 13405 ft | 367 kts | 85° |
| 2026-05-08 02:34 | 35.87111 | -115.02058 | 14087 ft | 369 kts | 84° |
| 2026-05-08 02:35 | 35.87266 | -114.98880 | 14715 ft | 373 kts | 84° |
| 2026-05-08 02:35 | 35.87431 | -114.95717 | 15362 ft | 377 kts | 83° |
| 2026-05-08 02:35 | 35.87607 | -114.92433 | 16019 ft | 381 kts | 83° |
| 2026-05-08 02:35 | 35.87781 | -114.89205 | 16668 ft | 384 kts | 83° |
| 2026-05-08 02:36 | 35.87960 | -114.85895 | 17308 ft | 388 kts | 83° |
| 2026-05-08 02:36 | 35.88139 | -114.82561 | 17940 ft | 391 kts | 83° |
| 2026-05-08 02:36 | 35.88319 | -114.79193 | 18503 ft | 395 kts | 83° |
| 2026-05-08 02:36 | 35.88499 | -114.75803 | 19055 ft | 398 kts | 83° |
| 2026-05-08 02:37 | 35.88681 | -114.72385 | 19609 ft | 401 kts | 83° |
| 2026-05-08 02:37 | 35.88861 | -114.68952 | 20168 ft | 403 kts | 83° |
| 2026-05-08 02:37 | 35.89043 | -114.65490 | 20687 ft | 406 kts | 83° |
| 2026-05-08 02:37 | 35.89224 | -114.62003 | 21198 ft | 409 kts | 83° |
| 2026-05-08 02:38 | 35.89407 | -114.58492 | 21665 ft | 412 kts | 83° |
| 2026-05-08 02:38 | 35.89589 | -114.54951 | 22170 ft | 415 kts | 83° |
| 2026-05-08 02:38 | 35.89662 | -114.51376 | 22651 ft | 419 kts | 88° |
| 2026-05-08 02:38 | 35.89620 | -114.47762 | 23168 ft | 422 kts | 88° |
| 2026-05-08 02:39 | 35.89593 | -114.44127 | 23611 ft | 425 kts | 87° |
| 2026-05-08 02:39 | 35.89572 | -114.40515 | 24019 ft | 428 kts | 87° |
| 2026-05-08 02:39 | 35.89555 | -114.36836 | 24460 ft | 430 kts | 87° |
| 2026-05-08 02:39 | 35.89537 | -114.33139 | 24864 ft | 433 kts | 87° |
| 2026-05-08 02:40 | 35.89518 | -114.29424 | 25280 ft | 435 kts | 87° |
| 2026-05-08 02:40 | 35.89498 | -114.25670 | 25710 ft | 437 kts | 87° |
| 2026-05-08 02:40 | 35.89476 | -114.21906 | 26103 ft | 440 kts | 87° |
| 2026-05-08 02:40 | 35.89461 | -114.19396 | 26358 ft | 442 kts | 87° |
| 2026-05-08 02:41 | 35.89437 | -114.15601 | 26745 ft | 444 kts | 87° |
| 2026-05-08 02:41 | 35.89412 | -114.11784 | 27139 ft | 447 kts | 87° |
| 2026-05-08 02:41 | 35.89386 | -114.07937 | 27496 ft | 449 kts | 87° |
| 2026-05-08 02:41 | 35.89358 | -114.04086 | 27871 ft | 452 kts | 87° |
| 2026-05-08 02:42 | 35.89329 | -114.00192 | 28238 ft | 454 kts | 87° |
| 2026-05-08 02:42 | 35.89298 | -113.96281 | 28567 ft | 458 kts | 87° |
| 2026-05-08 02:42 | 35.89266 | -113.92354 | 28954 ft | 459 kts | 87° |
| 2026-05-08 02:42 | 35.89233 | -113.88407 | 29298 ft | 462 kts | 87° |
| 2026-05-08 02:43 | 35.89198 | -113.84436 | 29630 ft | 464 kts | 87° |
| 2026-05-08 02:43 | 35.89161 | -113.80448 | 29984 ft | 466 kts | 87° |
| 2026-05-08 02:43 | 35.89123 | -113.76448 | 30278 ft | 468 kts | 87° |
| 2026-05-08 02:43 | 35.89084 | -113.72441 | 30720 ft | 467 kts | 87° |
| 2026-05-08 02:44 | 35.89044 | -113.68445 | 31125 ft | 466 kts | 87° |
| 2026-05-08 02:44 | 35.89002 | -113.64444 | 31435 ft | 466 kts | 87° |
| 2026-05-08 02:44 | 35.88965 | -113.60457 | 31857 ft | 465 kts | 87° |
| 2026-05-08 02:44 | 35.88916 | -113.56464 | 32116 ft | 463 kts | 87° |
| 2026-05-08 02:45 | 35.89018 | -113.52518 | 32528 ft | 457 kts | 77° |
| 2026-05-08 02:45 | 35.89626 | -113.48696 | 32932 ft | 455 kts | 76° |
| 2026-05-08 02:45 | 35.90206 | -113.44854 | 33229 ft | 454 kts | 76° |
| 2026-05-08 02:45 | 35.90788 | -113.41042 | 33666 ft | 453 kts | 76° |
| 2026-05-08 02:46 | 35.91374 | -113.37229 | 34056 ft | 451 kts | 76° |
| 2026-05-08 02:46 | 35.91951 | -113.33483 | 34421 ft | 450 kts | 76° |
| 2026-05-08 02:46 | 35.92534 | -113.29691 | 34720 ft | 449 kts | 76° |
| 2026-05-08 02:46 | 35.93114 | -113.25909 | 35035 ft | 449 kts | 76° |
| 2026-05-08 02:47 | 35.93692 | -113.22128 | 35354 ft | 448 kts | 76° |
| 2026-05-08 02:47 | 35.94269 | -113.18350 | 35665 ft | 447 kts | 76° |
| 2026-05-08 02:47 | 35.94844 | -113.14578 | 35952 ft | 447 kts | 76° |
| 2026-05-08 02:47 | 35.95415 | -113.10820 | 36236 ft | 446 kts | 76° |
| 2026-05-08 02:48 | 35.95986 | -113.07059 | 36537 ft | 445 kts | 75° |
| 2026-05-08 02:48 | 35.96554 | -113.03305 | 36805 ft | 445 kts | 75° |
| 2026-05-08 02:48 | 35.97119 | -112.99563 | 36968 ft | 445 kts | 75° |
| 2026-05-08 02:48 | 35.97684 | -112.95811 | 36955 ft | 443 kts | 75° |
| 2026-05-08 02:49 | 35.98806 | -112.88345 | 36959 ft | 442 kts | 75° |
| 2026-05-08 02:49 | 35.99924 | -112.80867 | 36958 ft | 442 kts | 75° |
| 2026-05-08 02:50 | 36.01030 | -112.73436 | 36962 ft | 444 kts | 75° |
| 2026-05-08 02:50 | 36.02145 | -112.65912 | 36965 ft | 445 kts | 75° |
| 2026-05-08 02:51 | 36.03255 | -112.58391 | 36990 ft | 445 kts | 75° |
| 2026-05-08 02:51 | 36.04360 | -112.50870 | 36972 ft | 444 kts | 75° |
| 2026-05-08 02:52 | 36.05460 | -112.43342 | 37072 ft | 446 kts | 76° |
| 2026-05-08 02:52 | 36.06560 | -112.35783 | 37099 ft | 447 kts | 76° |
| 2026-05-08 02:53 | 36.07657 | -112.28214 | 37128 ft | 447 kts | 76° |
| 2026-05-08 02:53 | 36.08747 | -112.20655 | 37138 ft | 447 kts | 76° |
| 2026-05-08 02:54 | 36.09833 | -112.13090 | 37135 ft | 447 kts | 76° |
| 2026-05-08 02:54 | 36.10908 | -112.05555 | 37081 ft | 442 kts | 76° |
| 2026-05-08 02:55 | 36.12511 | -111.94273 | 37083 ft | 444 kts | 76° |
| 2026-05-08 02:56 | 36.13564 | -111.86815 | 37037 ft | 444 kts | 76° |
| 2026-05-08 02:56 | 36.14621 | -111.79292 | 36982 ft | 443 kts | 76° |
| 2026-05-08 02:57 | 36.15669 | -111.71807 | 36967 ft | 441 kts | 76° |
| 2026-05-08 02:57 | 36.16713 | -111.64326 | 36953 ft | 441 kts | 76° |
| 2026-05-08 02:58 | 36.17750 | -111.56852 | 36966 ft | 441 kts | 76° |
| 2026-05-08 02:58 | 36.18627 | -111.49324 | 36952 ft | 442 kts | 78° |
| 2026-05-08 02:59 | 36.19490 | -111.41791 | 36953 ft | 442 kts | 78° |
| 2026-05-08 02:59 | 36.20353 | -111.34264 | 36948 ft | 442 kts | 78° |
| 2026-05-08 03:00 | 36.21205 | -111.26785 | 36946 ft | 442 kts | 78° |
| 2026-05-08 03:00 | 36.22065 | -111.19200 | 36949 ft | 442 kts | 78° |
| 2026-05-08 03:01 | 36.22909 | -111.11708 | 36949 ft | 442 kts | 78° |
| 2026-05-08 03:01 | 36.23757 | -111.04143 | 36946 ft | 444 kts | 78° |
| 2026-05-08 03:02 | 36.24599 | -110.96579 | 36941 ft | 444 kts | 78° |
| 2026-05-08 03:02 | 36.25438 | -110.89006 | 36944 ft | 444 kts | 78° |
| 2026-05-08 03:03 | 36.26273 | -110.81425 | 36943 ft | 443 kts | 78° |
| 2026-05-08 03:03 | 36.27104 | -110.73822 | 36956 ft | 446 kts | 78° |
| 2026-05-08 03:04 | 36.27933 | -110.66202 | 36953 ft | 447 kts | 78° |
| 2026-05-08 03:04 | 36.28753 | -110.58617 | 36958 ft | 447 kts | 78° |
| 2026-05-08 03:05 | 36.29573 | -110.50980 | 36951 ft | 447 kts | 78° |
| 2026-05-08 03:05 | 36.30390 | -110.43342 | 36966 ft | 448 kts | 78° |
| 2026-05-08 03:06 | 36.31186 | -110.35676 | 36958 ft | 450 kts | 82° |
| 2026-05-08 03:06 | 36.31565 | -110.27904 | 36972 ft | 452 kts | 82° |
| 2026-05-08 03:07 | 36.31980 | -110.20145 | 36968 ft | 451 kts | 82° |
| 2026-05-08 03:07 | 36.32400 | -110.12385 | 36973 ft | 451 kts | 82° |
| 2026-05-08 03:08 | 36.32816 | -110.04626 | 36976 ft | 452 kts | 82° |
| 2026-05-08 03:08 | 36.33226 | -109.96858 | 36966 ft | 452 kts | 82° |
| 2026-05-08 03:09 | 36.33633 | -109.89078 | 36974 ft | 452 kts | 82° |
| 2026-05-08 03:09 | 36.34032 | -109.81349 | 36963 ft | 452 kts | 82° |
| 2026-05-08 03:10 | 36.34428 | -109.73578 | 36964 ft | 453 kts | 82° |
| 2026-05-08 03:10 | 36.34820 | -109.65766 | 36971 ft | 453 kts | 82° |
| 2026-05-08 03:11 | 36.35208 | -109.57960 | 36971 ft | 453 kts | 82° |
| 2026-05-08 03:11 | 36.35591 | -109.50143 | 36979 ft | 454 kts | 82° |
| 2026-05-08 03:12 | 36.35968 | -109.42330 | 36987 ft | 455 kts | 82° |
| 2026-05-08 03:12 | 36.36343 | -109.34478 | 36997 ft | 456 kts | 82° |
| 2026-05-08 03:13 | 36.36712 | -109.26626 | 37002 ft | 455 kts | 82° |
| 2026-05-08 03:13 | 36.37072 | -109.18841 | 37003 ft | 454 kts | 83° |
| 2026-05-08 03:14 | 36.37429 | -109.11038 | 37018 ft | 453 kts | 83° |
| 2026-05-08 03:14 | 36.37781 | -109.03221 | 36993 ft | 453 kts | 83° |
| 2026-05-08 03:15 | 36.38128 | -108.95409 | 36993 ft | 455 kts | 83° |
| 2026-05-08 03:15 | 36.38470 | -108.87588 | 36988 ft | 453 kts | 83° |
| 2026-05-08 03:16 | 36.38807 | -108.79766 | 36989 ft | 453 kts | 83° |
| 2026-05-08 03:16 | 36.39139 | -108.71943 | 36988 ft | 455 kts | 83° |
| 2026-05-08 03:17 | 36.39467 | -108.64085 | 36990 ft | 456 kts | 83° |
| 2026-05-08 03:17 | 36.39788 | -108.56263 | 36980 ft | 456 kts | 83° |
| 2026-05-08 03:18 | 36.40108 | -108.48360 | 37001 ft | 456 kts | 83° |
| 2026-05-08 03:18 | 36.40418 | -108.40557 | 36999 ft | 456 kts | 83° |
| 2026-05-08 03:19 | 36.40728 | -108.32655 | 37007 ft | 459 kts | 83° |
| 2026-05-08 03:19 | 36.41032 | -108.24748 | 36988 ft | 458 kts | 83° |
| 2026-05-08 03:20 | 36.41331 | -108.16849 | 37001 ft | 459 kts | 83° |
| 2026-05-08 03:20 | 36.41624 | -108.08940 | 36994 ft | 459 kts | 83° |
| 2026-05-08 03:21 | 36.41913 | -108.01021 | 37001 ft | 459 kts | 84° |
| 2026-05-08 03:21 | 36.42196 | -107.93117 | 37007 ft | 459 kts | 84° |
| 2026-05-08 03:22 | 36.42473 | -107.85255 | 37020 ft | 459 kts | 84° |
| 2026-05-08 03:22 | 36.42745 | -107.77346 | 37025 ft | 459 kts | 84° |
| 2026-05-08 03:23 | 36.43015 | -107.69366 | 36995 ft | 460 kts | 84° |
| 2026-05-08 03:23 | 36.43277 | -107.61463 | 37004 ft | 461 kts | 84° |
| 2026-05-08 03:24 | 36.43536 | -107.53519 | 36998 ft | 461 kts | 84° |
| 2026-05-08 03:24 | 36.43790 | -107.45549 | 36992 ft | 460 kts | 84° |
| 2026-05-08 03:25 | 36.44037 | -107.37594 | 36991 ft | 461 kts | 84° |
| 2026-05-08 03:25 | 36.44281 | -107.29607 | 36995 ft | 463 kts | 84° |
| 2026-05-08 03:26 | 36.44519 | -107.21633 | 36995 ft | 460 kts | 84° |
| 2026-05-08 03:26 | 36.44749 | -107.13739 | 36990 ft | 460 kts | 84° |
| 2026-05-08 03:27 | 36.44939 | -107.07098 | 36993 ft | 460 kts | 84° |
| 2026-05-08 03:27 | 36.45198 | -106.97852 | 36997 ft | 463 kts | 85° |
| 2026-05-08 03:28 | 36.45380 | -106.91153 | 36996 ft | 463 kts | 85° |
| 2026-05-08 03:28 | 36.45593 | -106.83154 | 36999 ft | 463 kts | 85° |
| 2026-05-08 03:29 | 36.45799 | -106.75211 | 37013 ft | 463 kts | 85° |
| 2026-05-08 03:29 | 36.46001 | -106.67212 | 37017 ft | 464 kts | 85° |
| 2026-05-08 03:30 | 36.46296 | -106.55159 | 37016 ft | 466 kts | 85° |
| 2026-05-08 03:31 | 36.46671 | -106.39024 | 37017 ft | 467 kts | 85° |
| 2026-05-08 03:32 | 36.46939 | -106.26924 | 37011 ft | 469 kts | 86° |
| 2026-05-08 03:32 | 36.47112 | -106.18803 | 37014 ft | 470 kts | 86° |
| 2026-05-08 03:33 | 36.47277 | -106.10738 | 37010 ft | 470 kts | 86° |
| 2026-05-08 03:33 | 36.47439 | -106.02623 | 36996 ft | 470 kts | 86° |
| 2026-05-08 03:34 | 36.47594 | -105.94500 | 36991 ft | 471 kts | 86° |
| 2026-05-08 03:34 | 36.47745 | -105.86364 | 37005 ft | 472 kts | 86° |
| 2026-05-08 03:35 | 36.47891 | -105.78207 | 37010 ft | 472 kts | 86° |
| 2026-05-08 03:35 | 36.48044 | -105.69348 | 37029 ft | 471 kts | 86° |
| 2026-05-08 03:36 | 36.48177 | -105.61203 | 37085 ft | 472 kts | 87° |
| 2026-05-08 03:36 | 36.48306 | -105.53043 | 37128 ft | 473 kts | 87° |
| 2026-05-08 03:37 | 36.48429 | -105.44926 | 37160 ft | 473 kts | 87° |
| 2026-05-08 03:37 | 36.48547 | -105.36749 | 37198 ft | 472 kts | 87° |
| 2026-05-08 03:38 | 36.48661 | -105.28584 | 37205 ft | 472 kts | 87° |
| 2026-05-08 03:38 | 36.48770 | -105.20426 | 37193 ft | 473 kts | 87° |
| 2026-05-08 03:39 | 36.48874 | -105.12250 | 37154 ft | 473 kts | 87° |
| 2026-05-08 03:39 | 36.48972 | -105.04094 | 37120 ft | 473 kts | 87° |
| 2026-05-08 03:40 | 36.49064 | -104.95970 | 36998 ft | 472 kts | 87° |
| 2026-05-08 03:40 | 36.49169 | -104.87791 | 36982 ft | 475 kts | 84° |
| 2026-05-08 03:41 | 36.49750 | -104.79588 | 36977 ft | 477 kts | 83° |
| 2026-05-08 03:41 | 36.50289 | -104.71373 | 36974 ft | 477 kts | 83° |
| 2026-05-08 03:42 | 36.50812 | -104.63163 | 36968 ft | 476 kts | 83° |
| 2026-05-08 03:42 | 36.51330 | -104.54951 | 36977 ft | 477 kts | 83° |
| 2026-05-08 03:43 | 36.51841 | -104.46734 | 36980 ft | 477 kts | 83° |
| 2026-05-08 03:43 | 36.52348 | -104.38517 | 36983 ft | 477 kts | 83° |
| 2026-05-08 03:44 | 36.52848 | -104.30297 | 36991 ft | 477 kts | 83° |
| 2026-05-08 03:44 | 36.53343 | -104.22074 | 36991 ft | 477 kts | 83° |
| 2026-05-08 03:45 | 36.53831 | -104.13866 | 36996 ft | 481 kts | 84° |
| 2026-05-08 03:45 | 36.54320 | -104.05558 | 36992 ft | 482 kts | 84° |
| 2026-05-08 03:46 | 36.54803 | -103.97248 | 36989 ft | 482 kts | 84° |
| 2026-05-08 03:46 | 36.55280 | -103.88938 | 36989 ft | 481 kts | 84° |
| 2026-05-08 03:47 | 36.55751 | -103.80634 | 36989 ft | 483 kts | 84° |
| 2026-05-08 03:47 | 36.56219 | -103.72272 | 36986 ft | 484 kts | 85° |
| 2026-05-08 03:48 | 36.56681 | -103.63919 | 36966 ft | 484 kts | 85° |
| 2026-05-08 03:48 | 36.57061 | -103.56969 | 36967 ft | 484 kts | 85° |
| 2026-05-08 03:49 | 36.57512 | -103.48613 | 36969 ft | 484 kts | 85° |
| 2026-05-08 03:49 | 36.57959 | -103.40231 | 36961 ft | 486 kts | 85° |
| 2026-05-08 03:50 | 36.58400 | -103.31840 | 36961 ft | 486 kts | 85° |
| 2026-05-08 03:50 | 36.58834 | -103.23458 | 36954 ft | 486 kts | 85° |
| 2026-05-08 03:51 | 36.59264 | -103.15063 | 36967 ft | 487 kts | 85° |
| 2026-05-08 03:51 | 36.59687 | -103.06702 | 36968 ft | 488 kts | 86° |
| 2026-05-08 03:52 | 36.60107 | -102.98263 | 36956 ft | 489 kts | 86° |
| 2026-05-08 03:52 | 36.60520 | -102.89828 | 36946 ft | 489 kts | 86° |
| 2026-05-08 03:53 | 36.60929 | -102.81386 | 36947 ft | 489 kts | 86° |
| 2026-05-08 03:53 | 36.61332 | -102.72934 | 36936 ft | 490 kts | 86° |
| 2026-05-08 03:54 | 36.61730 | -102.64437 | 36933 ft | 492 kts | 86° |
| 2026-05-08 03:54 | 36.62123 | -102.55932 | 36932 ft | 492 kts | 86° |
| 2026-05-08 03:55 | 36.62510 | -102.47412 | 36923 ft | 492 kts | 86° |
| 2026-05-08 03:55 | 36.62892 | -102.38905 | 36929 ft | 493 kts | 87° |
| 2026-05-08 03:56 | 36.63269 | -102.30359 | 36929 ft | 495 kts | 87° |
| 2026-05-08 03:56 | 36.63639 | -102.21802 | 36930 ft | 495 kts | 87° |
| 2026-05-08 03:57 | 36.64003 | -102.13292 | 36923 ft | 495 kts | 87° |
| 2026-05-08 03:57 | 36.64361 | -102.04727 | 36923 ft | 495 kts | 87° |
| 2026-05-08 03:58 | 36.64714 | -101.96150 | 36920 ft | 499 kts | 87° |
| 2026-05-08 03:58 | 36.65063 | -101.87522 | 36927 ft | 498 kts | 87° |
| 2026-05-08 03:59 | 36.65406 | -101.78900 | 36940 ft | 498 kts | 87° |
| 2026-05-08 03:59 | 36.65742 | -101.70281 | 36959 ft | 498 kts | 88° |
| 2026-05-08 04:00 | 36.66073 | -101.61635 | 36965 ft | 502 kts | 88° |
| 2026-05-08 04:00 | 36.66398 | -101.52983 | 36963 ft | 503 kts | 88° |
| 2026-05-08 04:01 | 36.66719 | -101.44274 | 36974 ft | 503 kts | 88° |
| 2026-05-08 04:01 | 36.67033 | -101.35573 | 36976 ft | 503 kts | 88° |
| 2026-05-08 04:02 | 36.67342 | -101.26849 | 36965 ft | 504 kts | 89° |
| 2026-05-08 04:02 | 36.67646 | -101.18079 | 36944 ft | 507 kts | 89° |
| 2026-05-08 04:03 | 36.67940 | -101.09374 | 36943 ft | 506 kts | 89° |
| 2026-05-08 04:03 | 36.68376 | -100.96173 | 36953 ft | 506 kts | 89° |
| 2026-05-08 04:04 | 36.68655 | -100.87456 | 36955 ft | 506 kts | 89° |
| 2026-05-08 04:04 | 36.68930 | -100.78683 | 36955 ft | 506 kts | 89° |
| 2026-05-08 04:05 | 36.69198 | -100.69921 | 36956 ft | 506 kts | 89° |
| 2026-05-08 04:05 | 36.69461 | -100.61137 | 36956 ft | 507 kts | 89° |
| 2026-05-08 04:06 | 36.69716 | -100.52360 | 36951 ft | 509 kts | 89° |
| 2026-05-08 04:06 | 36.69968 | -100.43516 | 36953 ft | 511 kts | 90° |
| 2026-05-08 04:07 | 36.70212 | -100.34665 | 36955 ft | 511 kts | 90° |
| 2026-05-08 04:07 | 36.70449 | -100.25878 | 36950 ft | 511 kts | 90° |
| 2026-05-08 04:08 | 36.70680 | -100.17012 | 36952 ft | 513 kts | 90° |
| 2026-05-08 04:08 | 36.70907 | -100.08098 | 36956 ft | 515 kts | 90° |
| 2026-05-08 04:09 | 36.71128 | -99.99172 | 36954 ft | 515 kts | 90° |
| 2026-05-08 04:09 | 36.71341 | -99.90237 | 36949 ft | 515 kts | 90° |
| 2026-05-08 04:10 | 36.71547 | -99.81372 | 36953 ft | 516 kts | 90° |
| 2026-05-08 04:10 | 36.71748 | -99.72404 | 36948 ft | 519 kts | 90° |
| 2026-05-08 04:11 | 36.71943 | -99.63404 | 36945 ft | 519 kts | 90° |
| 2026-05-08 04:11 | 36.72131 | -99.54423 | 36947 ft | 519 kts | 90° |
| 2026-05-08 04:12 | 36.72312 | -99.45438 | 36939 ft | 519 kts | 91° |
| 2026-05-08 04:12 | 36.72488 | -99.36408 | 36936 ft | 523 kts | 91° |
| 2026-05-08 04:13 | 36.72657 | -99.27342 | 36934 ft | 523 kts | 91° |
| 2026-05-08 04:13 | 36.72819 | -99.18290 | 36933 ft | 523 kts | 91° |
| 2026-05-08 04:14 | 36.72975 | -99.09215 | 36936 ft | 523 kts | 91° |
| 2026-05-08 04:14 | 36.73124 | -99.00095 | 36946 ft | 529 kts | 91° |
| 2026-05-08 04:15 | 36.73267 | -98.90927 | 36918 ft | 527 kts | 91° |
| 2026-05-08 04:15 | 36.73336 | -98.86388 | 36714 ft | 520 kts | 91° |
| 2026-05-08 04:15 | 36.73402 | -98.81916 | 36161 ft | 516 kts | 91° |
| 2026-05-08 04:16 | 36.73465 | -98.77445 | 34958 ft | 529 kts | 90° |
| 2026-05-08 04:16 | 36.73530 | -98.72844 | 34575 ft | 519 kts | 90° |
| 2026-05-08 04:16 | 36.73590 | -98.68423 | 34054 ft | 515 kts | 90° |
| 2026-05-08 04:16 | 36.73648 | -98.63972 | 33211 ft | 511 kts | 89° |
| 2026-05-08 04:17 | 36.73705 | -98.59538 | 31969 ft | 511 kts | 89° |
| 2026-05-08 04:17 | 36.73760 | -98.55118 | 30749 ft | 511 kts | 89° |
| 2026-05-08 04:17 | 36.73813 | -98.50694 | 29440 ft | 511 kts | 89° |
| 2026-05-08 04:17 | 36.73865 | -98.46257 | 27959 ft | 512 kts | 89° |
| 2026-05-08 04:18 | 36.73914 | -98.41854 | 27145 ft | 500 kts | 89° |
| 2026-05-08 04:18 | 36.73961 | -98.37616 | 26689 ft | 484 kts | 89° |
| 2026-05-08 04:18 | 36.74005 | -98.33365 | 25947 ft | 496 kts | 89° |
| 2026-05-08 04:18 | 36.74050 | -98.29043 | 25224 ft | 499 kts | 89° |
| 2026-05-08 04:19 | 36.74093 | -98.24714 | 24549 ft | 500 kts | 89° |
| 2026-05-08 04:19 | 36.74134 | -98.20392 | 23851 ft | 497 kts | 89° |
| 2026-05-08 04:19 | 36.74174 | -98.16074 | 23076 ft | 497 kts | 89° |
| 2026-05-08 04:19 | 36.74211 | -98.11779 | 22308 ft | 494 kts | 89° |
| 2026-05-08 04:20 | 36.74247 | -98.07511 | 21618 ft | 490 kts | 89° |
| 2026-05-08 04:20 | 36.74281 | -98.03281 | 20929 ft | 486 kts | 89° |
| 2026-05-08 04:20 | 36.74314 | -97.99081 | 20246 ft | 482 kts | 89° |
| 2026-05-08 04:20 | 36.74345 | -97.94917 | 19577 ft | 479 kts | 88° |
| 2026-05-08 04:21 | 36.74374 | -97.90782 | 18896 ft | 476 kts | 88° |
| 2026-05-08 04:21 | 36.74402 | -97.86721 | 18304 ft | 471 kts | 88° |
| 2026-05-08 04:21 | 36.74428 | -97.82666 | 17594 ft | 466 kts | 89° |
| 2026-05-08 04:21 | 36.74454 | -97.78627 | 16890 ft | 463 kts | 89° |
| 2026-05-08 04:22 | 36.74477 | -97.74668 | 16196 ft | 450 kts | 89° |
| 2026-05-08 04:22 | 36.74499 | -97.70779 | 15599 ft | 446 kts | 89° |
| 2026-05-08 04:22 | 36.74519 | -97.66955 | 14965 ft | 433 kts | 89° |
| 2026-05-08 04:22 | 36.74538 | -97.63267 | 14386 ft | 417 kts | 89° |
| 2026-05-08 04:23 | 36.74555 | -97.59724 | 13807 ft | 403 kts | 89° |
| 2026-05-08 04:23 | 36.74570 | -97.56287 | 13210 ft | 390 kts | 89° |
| 2026-05-08 04:23 | 36.74584 | -97.52971 | 12679 ft | 376 kts | 89° |
| 2026-05-08 04:23 | 36.74597 | -97.49763 | 12224 ft | 363 kts | 89° |
| 2026-05-08 04:24 | 36.74608 | -97.46681 | 11948 ft | 347 kts | 89° |
| 2026-05-08 04:24 | 36.74618 | -97.43741 | 11981 ft | 331 kts | 89° |
| 2026-05-08 04:24 | 36.74626 | -97.40924 | 11982 ft | 317 kts | 89° |
| 2026-05-08 04:24 | 36.74634 | -97.38233 | 11980 ft | 305 kts | 89° |
| 2026-05-08 04:25 | 36.74641 | -97.35603 | 11970 ft | 303 kts | 89° |
| 2026-05-08 04:25 | 36.74648 | -97.32990 | 11828 ft | 300 kts | 89° |
| 2026-05-08 04:25 | 36.74654 | -97.30393 | 11505 ft | 299 kts | 89° |
| 2026-05-08 04:25 | 36.74659 | -97.27816 | 11216 ft | 296 kts | 89° |
| 2026-05-08 04:26 | 36.74663 | -97.25258 | 10937 ft | 294 kts | 89° |
| 2026-05-08 04:26 | 36.74667 | -97.22720 | 10648 ft | 292 kts | 88° |
| 2026-05-08 04:26 | 36.74671 | -97.20234 | 10373 ft | 289 kts | 88° |
| 2026-05-08 04:26 | 36.74673 | -97.17732 | 10096 ft | 286 kts | 89° |
| 2026-05-08 04:27 | 36.74444 | -97.15295 | 9963 ft | 282 kts | 107° |
| 2026-05-08 04:27 | 36.73791 | -97.12956 | 9941 ft | 288 kts | 108° |
| 2026-05-08 04:27 | 36.73137 | -97.10596 | 9946 ft | 288 kts | 108° |
| 2026-05-08 04:27 | 36.72481 | -97.08236 | 9958 ft | 288 kts | 108° |
| 2026-05-08 04:28 | 36.71820 | -97.05874 | 9957 ft | 289 kts | 108° |
| 2026-05-08 04:28 | 36.71164 | -97.03521 | 9932 ft | 285 kts | 108° |
| 2026-05-08 04:28 | 36.70507 | -97.01175 | 9559 ft | 286 kts | 108° |
| 2026-05-08 04:28 | 36.69853 | -96.98840 | 9209 ft | 286 kts | 108° |
| 2026-05-08 04:29 | 36.69198 | -96.96508 | 8862 ft | 284 kts | 108° |
| 2026-05-08 04:29 | 36.68546 | -96.94182 | 8514 ft | 284 kts | 109° |
| 2026-05-08 04:29 | 36.67893 | -96.91858 | 8188 ft | 283 kts | 109° |
| 2026-05-08 04:29 | 36.67246 | -96.89551 | 7887 ft | 282 kts | 109° |
| 2026-05-08 04:30 | 36.66605 | -96.87276 | 7601 ft | 281 kts | 109° |
| 2026-05-08 04:30 | 36.65963 | -96.84994 | 7378 ft | 276 kts | 109° |
| 2026-05-08 04:30 | 36.65338 | -96.82781 | 7284 ft | 266 kts | 109° |
| 2026-05-08 04:30 | 36.64736 | -96.80641 | 7191 ft | 257 kts | 109° |
| 2026-05-08 04:31 | 36.64156 | -96.78584 | 7084 ft | 248 kts | 109° |
| 2026-05-08 04:31 | 36.63589 | -96.76578 | 6837 ft | 246 kts | 109° |
| 2026-05-08 04:31 | 36.63023 | -96.74575 | 6557 ft | 244 kts | 109° |
| 2026-05-08 04:31 | 36.62456 | -96.72575 | 6252 ft | 244 kts | 110° |
| 2026-05-08 04:32 | 36.61892 | -96.70585 | 5921 ft | 244 kts | 110° |
| 2026-05-08 04:32 | 36.61329 | -96.68593 | 5657 ft | 242 kts | 110° |
| 2026-05-08 04:32 | 36.60765 | -96.66611 | 5376 ft | 243 kts | 111° |
| 2026-05-08 04:32 | 36.60205 | -96.64634 | 5103 ft | 242 kts | 111° |
| 2026-05-08 04:33 | 36.59646 | -96.62664 | 4934 ft | 241 kts | 111° |
| 2026-05-08 04:33 | 36.59081 | -96.60674 | 4932 ft | 250 kts | 111° |
| 2026-05-08 04:33 | 36.58508 | -96.58657 | 5991 ft | 252 kts | 110° |
| 2026-05-08 04:33 | 36.57902 | -96.56527 | 6766 ft | 269 kts | 109° |
| 2026-05-08 04:34 | 36.57272 | -96.54314 | 7616 ft | 280 kts | 109° |
| 2026-05-08 04:34 | 36.56630 | -96.52060 | 8021 ft | 272 kts | 109° |
| 2026-05-08 04:34 | 36.55998 | -96.49845 | 7817 ft | 270 kts | 108° |
| 2026-05-08 04:34 | 36.55380 | -96.47679 | 7675 ft | 262 kts | 108° |
| 2026-05-08 04:35 | 36.54778 | -96.45572 | 7548 ft | 254 kts | 108° |
| 2026-05-08 04:35 | 36.54197 | -96.43540 | 7398 ft | 246 kts | 108° |
| 2026-05-08 04:35 | 36.53625 | -96.41547 | 7274 ft | 243 kts | 108° |
| 2026-05-08 04:35 | 36.53250 | -96.40235 | 7147 ft | 243 kts | 108° |
| 2026-05-08 04:36 | 36.52681 | -96.38249 | 6952 ft | 243 kts | 108° |
| 2026-05-08 04:36 | 36.52113 | -96.36266 | 6766 ft | 243 kts | 108° |
| 2026-05-08 04:36 | 36.51365 | -96.33655 | 6506 ft | 242 kts | 108° |
| 2026-05-08 04:36 | 36.50800 | -96.31693 | 6304 ft | 241 kts | 109° |
| 2026-05-08 04:37 | 36.50419 | -96.30367 | 6171 ft | 241 kts | 109° |
| 2026-05-08 04:37 | 36.49855 | -96.28406 | 5943 ft | 241 kts | 109° |
| 2026-05-08 04:37 | 36.49292 | -96.26451 | 5748 ft | 240 kts | 109° |
| 2026-05-08 04:37 | 36.48728 | -96.24493 | 5548 ft | 241 kts | 109° |
| 2026-05-08 04:38 | 36.48167 | -96.22541 | 5357 ft | 238 kts | 110° |
| 2026-05-08 04:38 | 36.47617 | -96.20639 | 5199 ft | 233 kts | 110° |
| 2026-05-08 04:38 | 36.47088 | -96.18803 | 5140 ft | 220 kts | 110° |
| 2026-05-08 04:38 | 36.46585 | -96.17058 | 5036 ft | 210 kts | 110° |
| 2026-05-08 04:39 | 36.46098 | -96.15373 | 4824 ft | 206 kts | 110° |
| 2026-05-08 04:39 | 36.45610 | -96.13684 | 4532 ft | 207 kts | 111° |
| 2026-05-08 04:39 | 36.45126 | -96.12012 | 4264 ft | 206 kts | 112° |
| 2026-05-08 04:39 | 36.44642 | -96.10345 | 4006 ft | 204 kts | 112° |
| 2026-05-08 04:40 | 36.44165 | -96.08690 | 3755 ft | 203 kts | 112° |
| 2026-05-08 04:40 | 36.43689 | -96.07047 | 3494 ft | 202 kts | 113° |
| 2026-05-08 04:40 | 36.43215 | -96.05423 | 3268 ft | 202 kts | 114° |
| 2026-05-08 04:40 | 36.42738 | -96.03783 | 3049 ft | 201 kts | 114° |
| 2026-05-08 04:41 | 36.42272 | -96.02158 | 2944 ft | 201 kts | 115° |
| 2026-05-08 04:41 | 36.41795 | -96.00531 | 2932 ft | 200 kts | 115° |
| 2026-05-08 04:41 | 36.41329 | -95.98902 | 3009 ft | 201 kts | 114° |
| 2026-05-08 04:41 | 36.40852 | -95.97274 | 3049 ft | 201 kts | 114° |
| 2026-05-08 04:42 | 36.40381 | -95.95643 | 3079 ft | 201 kts | 114° |
| 2026-05-08 04:42 | 36.39907 | -95.94015 | 3031 ft | 201 kts | 115° |
| 2026-05-08 04:42 | 36.39428 | -95.92394 | 3040 ft | 200 kts | 114° |
| 2026-05-08 04:42 | 36.38954 | -95.90770 | 3034 ft | 200 kts | 114° |
| 2026-05-08 04:43 | 36.38474 | -95.89145 | 3019 ft | 199 kts | 120° |
| 2026-05-08 04:43 | 36.37635 | -95.87928 | 2913 ft | 180 kts | 156° |
| 2026-05-08 04:43 | 36.36504 | -95.87424 | 3013 ft | 171 kts | 174° |
| 2026-05-08 04:43 | 36.35326 | -95.87250 | 3059 ft | 170 kts | 183° |
| 2026-05-08 04:44 | 36.34175 | -95.87282 | 2902 ft | 158 kts | 186° |
| 2026-05-08 04:44 | 36.33140 | -95.87339 | 2770 ft | 144 kts | 188° |
| 2026-05-08 04:44 | 36.32143 | -95.87407 | 2585 ft | 143 kts | 187° |
| 2026-05-08 04:44 | 36.31161 | -95.87478 | 2407 ft | 141 kts | 187° |
| 2026-05-08 04:45 | 36.30197 | -95.87547 | 2250 ft | 137 kts | 187° |
| 2026-05-08 04:45 | 36.29240 | -95.87609 | 2084 ft | 139 kts | 186° |
| 2026-05-08 04:45 | 36.28284 | -95.87671 | 1885 ft | 137 kts | 186° |
| 2026-05-08 04:45 | 36.27348 | -95.87729 | 1750 ft | 137 kts | 185° |
| 2026-05-08 04:46 | 36.26403 | -95.87795 | 1556 ft | 137 kts | 184° |
| 2026-05-08 04:46 | 36.25438 | -95.87863 | 1402 ft | 141 kts | 184° |
| 2026-05-08 04:46 | 36.24449 | -95.87926 | 1263 ft | 144 kts | 183° |
| 2026-05-08 04:46 | 36.23462 | -95.88047 | 1092 ft | 143 kts | 184° |
| 2026-05-08 04:47 | 36.22479 | -95.88076 | 918 ft | 140 kts | 182° |
| 2026-05-08 04:47 | 36.21504 | -95.88137 | 746 ft | 141 kts | 182° |
| 2026-05-08 04:47 | 36.20543 | -95.88193 | 671 ft | 130 kts | 183° |
| 2026-05-08 04:47 | 36.19815 | -95.88237 | 671 ft | 68 kts | 183° |
| 2026-05-08 04:48 | 36.19489 | -95.88265 | 672 ft | 28 kts | 198° |
| 2026-05-08 04:48 | 36.19448 | -95.88430 | 670 ft | 21 kts | 270° |
| 2026-05-08 04:48 | 36.19420 | -95.88584 | 669 ft | 18 kts | 205° |
| 2026-05-08 04:48 | 36.19314 | -95.88666 | 670 ft | 19 kts | 217° |
| 2026-05-08 04:49 | 36.19300 | -95.88770 | 669 ft | 12 kts | 314° |
| 2026-05-08 04:49 | 36.19363 | -95.88856 | 670 ft | 15 kts | 305° |
| 2026-05-08 04:49 | 36.19352 | -95.88966 | 669 ft | 15 kts | 228° |
| 2026-05-08 04:49 | 36.19273 | -95.89025 | 670 ft | 9 kts | 195° |
| 2026-05-08 04:50 | 36.19233 | -95.89007 | 670 ft | 5 kts | 154° |
| 2026-05-08 04:50 | 36.19221 | -95.89000 | 669 ft | 0 kts | 154° |